sensor_id;sensor_type;location;lat;lon;timestamp;pressure;altitude;pressure_sealevel;temperature;humidity
11648;BME280;5880;52.342;9.662;2023-08-01T00:01:13;99292.13;;;22.19;58.67
11648;BME280;5880;52.342;9.662;2023-08-01T00:03:39;99290.16;;;22.19;58.85
11648;BME280;5880;52.342;9.662;2023-08-01T00:06:05;99277.63;;;22.13;58.93
11648;BME280;5880;52.342;9.662;2023-08-01T00:08:30;99279.38;;;22.18;58.92
11648;BME280;5880;52.342;9.662;2023-08-01T00:10:56;99269.38;;;22.17;58.81
11648;BME280;5880;52.342;9.662;2023-08-01T00:13:22;99266.75;;;22.20;58.90
11648;BME280;5880;52.342;9.662;2023-08-01T00:15:47;99266.41;;;22.22;58.89
11648;BME280;5880;52.342;9.662;2023-08-01T00:18:13;99259.53;;;22.19;58.98
11648;BME280;5880;52.342;9.662;2023-08-01T00:20:38;99257.72;;;22.23;58.80
11648;BME280;5880;52.342;9.662;2023-08-01T00:23:05;99258.53;;;22.24;58.75
11648;BME280;5880;52.342;9.662;2023-08-01T00:25:30;99245.81;;;22.23;58.83
11648;BME280;5880;52.342;9.662;2023-08-01T00:27:56;99244.63;;;22.24;58.80
11648;BME280;5880;52.342;9.662;2023-08-01T00:30:22;99240.22;;;22.23;58.94
11648;BME280;5880;52.342;9.662;2023-08-01T00:32:48;99229.91;;;22.23;58.74
11648;BME280;5880;52.342;9.662;2023-08-01T00:35:13;99218.78;;;22.23;58.72
11648;BME280;5880;52.342;9.662;2023-08-01T00:37:39;99211.09;;;22.20;58.86
11648;BME280;5880;52.342;9.662;2023-08-01T00:40:06;99206.69;;;22.19;58.75
11648;BME280;5880;52.342;9.662;2023-08-01T00:42:31;99197.53;;;22.19;58.95
11648;BME280;5880;52.342;9.662;2023-08-01T00:44:57;99204.25;;;22.18;58.85
11648;BME280;5880;52.342;9.662;2023-08-01T00:47:24;99194.97;;;22.13;58.79
11648;BME280;5880;52.342;9.662;2023-08-01T00:49:50;99196.47;;;22.11;58.89
11648;BME280;5880;52.342;9.662;2023-08-01T00:52:16;99197.28;;;22.11;59.02
11648;BME280;5880;52.342;9.662;2023-08-01T00:54:42;99200.38;;;22.10;59.03
11648;BME280;5880;52.342;9.662;2023-08-01T00:57:09;99196.34;;;22.07;59.27
11648;BME280;5880;52.342;9.662;2023-08-01T00:59:35;99194.25;;;22.04;59.30
11648;BME280;5880;52.342;9.662;2023-08-01T01:02:01;99185.75;;;22.01;59.25
11648;BME280;5880;52.342;9.662;2023-08-01T01:04:27;99192.63;;;22.03;59.25
11648;BME280;5880;52.342;9.662;2023-08-01T01:07:03;99184.28;;;22.03;59.23
11648;BME280;5880;52.342;9.662;2023-08-01T01:09:30;99195.06;;;22.05;59.46
11648;BME280;5880;52.342;9.662;2023-08-01T01:11:58;99192.28;;;22.05;59.33
11648;BME280;5880;52.342;9.662;2023-08-01T01:14:26;99187.50;;;22.05;59.28
11648;BME280;5880;52.342;9.662;2023-08-01T01:16:52;99172.81;;;22.05;59.38
11648;BME280;5880;52.342;9.662;2023-08-01T01:19:18;99176.84;;;22.07;59.46
11648;BME280;5880;52.342;9.662;2023-08-01T01:21:45;99171.78;;;22.09;59.49
11648;BME280;5880;52.342;9.662;2023-08-01T01:24:13;99170.25;;;22.12;59.45
11648;BME280;5880;52.342;9.662;2023-08-01T01:26:41;99168.75;;;22.14;59.15
11648;BME280;5880;52.342;9.662;2023-08-01T01:29:10;99167.94;;;22.14;59.26
11648;BME280;5880;52.342;9.662;2023-08-01T01:31:37;99160.63;;;22.09;59.23
11648;BME280;5880;52.342;9.662;2023-08-01T01:34:04;99154.13;;;22.05;59.16
11648;BME280;5880;52.342;9.662;2023-08-01T01:36:30;99153.81;;;22.07;59.40
11648;BME280;5880;52.342;9.662;2023-08-01T01:38:56;99150.06;;;22.03;59.17
11648;BME280;5880;52.342;9.662;2023-08-01T01:41:21;99149.75;;;22.04;59.29
11648;BME280;5880;52.342;9.662;2023-08-01T01:43:48;99137.66;;;22.00;59.27
11648;BME280;5880;52.342;9.662;2023-08-01T01:46:14;99142.44;;;22.00;59.42
11648;BME280;5880;52.342;9.662;2023-08-01T01:48:39;99134.41;;;21.98;59.56
11648;BME280;5880;52.342;9.662;2023-08-01T01:51:05;99133.97;;;21.96;59.65
11648;BME280;5880;52.342;9.662;2023-08-01T01:53:31;99132.00;;;21.97;59.47
11648;BME280;5880;52.342;9.662;2023-08-01T01:55:56;99133.97;;;21.96;59.44
11648;BME280;5880;52.342;9.662;2023-08-01T01:58:22;99126.78;;;21.95;59.51
11648;BME280;5880;52.342;9.662;2023-08-01T02:00:49;99131.53;;;21.95;59.51
11648;BME280;5880;52.342;9.662;2023-08-01T02:03:15;99115.53;;;21.91;59.66
11648;BME280;5880;52.342;9.662;2023-08-01T02:05:40;99117.16;;;21.92;59.56
11648;BME280;5880;52.342;9.662;2023-08-01T02:08:07;99108.00;;;21.92;59.56
11648;BME280;5880;52.342;9.662;2023-08-01T02:10:32;99104.75;;;21.90;59.71
11648;BME280;5880;52.342;9.662;2023-08-01T02:12:58;99103.13;;;21.89;59.49
11648;BME280;5880;52.342;9.662;2023-08-01T02:15:24;99092.00;;;21.89;59.72
11648;BME280;5880;52.342;9.662;2023-08-01T02:17:50;99097.22;;;21.90;59.71
11648;BME280;5880;52.342;9.662;2023-08-01T02:20:16;99097.22;;;21.90;59.59
11648;BME280;5880;52.342;9.662;2023-08-01T02:22:42;99098.84;;;21.91;59.62
11648;BME280;5880;52.342;9.662;2023-08-01T02:25:08;99099.31;;;21.93;59.77
11648;BME280;5880;52.342;9.662;2023-08-01T02:27:34;99103.72;;;21.95;59.59
11648;BME280;5880;52.342;9.662;2023-08-01T02:29:59;99090.50;;;21.91;59.40
11648;BME280;5880;52.342;9.662;2023-08-01T02:32:25;99089.34;;;21.92;59.56
11648;BME280;5880;52.342;9.662;2023-08-01T02:34:51;99085.88;;;21.96;59.62
11648;BME280;5880;52.342;9.662;2023-08-01T02:37:16;99084.13;;;21.91;59.42
11648;BME280;5880;52.342;9.662;2023-08-01T02:39:42;99080.88;;;21.89;59.45
11648;BME280;5880;52.342;9.662;2023-08-01T02:42:08;99067.78;;;21.89;59.58
11648;BME280;5880;52.342;9.662;2023-08-01T02:44:33;99064.53;;;21.87;59.51
11648;BME280;5880;52.342;9.662;2023-08-01T02:46:59;99063.75;;;21.87;59.36
11648;BME280;5880;52.342;9.662;2023-08-01T02:49:25;99060.97;;;21.87;59.46
11648;BME280;5880;52.342;9.662;2023-08-01T02:51:51;99060.50;;;21.85;59.49
11648;BME280;5880;52.342;9.662;2023-08-01T02:54:16;99059.31;;;21.86;59.32
11648;BME280;5880;52.342;9.662;2023-08-01T02:56:42;99047.41;;;21.85;59.63
11648;BME280;5880;52.342;9.662;2023-08-01T02:59:08;99059.66;;;21.84;59.42
11648;BME280;5880;52.342;9.662;2023-08-01T03:01:37;99056.06;;;21.84;59.47
11648;BME280;5880;52.342;9.662;2023-08-01T03:04:05;99058.84;;;21.84;59.36
11648;BME280;5880;52.342;9.662;2023-08-01T03:06:32;99057.09;;;21.79;59.62
11648;BME280;5880;52.342;9.662;2023-08-01T03:08:59;99055.25;;;21.83;59.46
11648;BME280;5880;52.342;9.662;2023-08-01T03:11:26;99052.00;;;21.81;59.32
11648;BME280;5880;52.342;9.662;2023-08-01T03:13:51;99045.97;;;21.79;59.29
11648;BME280;5880;52.342;9.662;2023-08-01T03:16:17;99042.88;;;21.81;59.27
11648;BME280;5880;52.342;9.662;2023-08-01T03:18:43;99018.53;;;21.78;59.58
11648;BME280;5880;52.342;9.662;2023-08-01T03:21:10;99019.00;;;21.80;59.45
11648;BME280;5880;52.342;9.662;2023-08-01T03:23:36;99019.22;;;21.75;59.21
11648;BME280;5880;52.342;9.662;2023-08-01T03:26:02;99022.94;;;21.79;59.46
11648;BME280;5880;52.342;9.662;2023-08-01T03:28:28;99011.81;;;21.79;59.45
11648;BME280;5880;52.342;9.662;2023-08-01T03:30:54;99010.53;;;21.76;59.60
11648;BME280;5880;52.342;9.662;2023-08-01T03:33:22;99028.16;;;21.80;59.39
11648;BME280;5880;52.342;9.662;2023-08-01T03:35:48;99018.53;;;21.78;59.38
11648;BME280;5880;52.342;9.662;2023-08-01T03:38:14;99017.38;;;21.79;59.32
11648;BME280;5880;52.342;9.662;2023-08-01T03:40:40;99011.00;;;21.78;59.51
11648;BME280;5880;52.342;9.662;2023-08-01T03:43:05;99012.97;;;21.78;59.30
11648;BME280;5880;52.342;9.662;2023-08-01T03:45:33;99019.34;;;21.78;59.38
11648;BME280;5880;52.342;9.662;2023-08-01T03:47:58;99018.06;;;21.76;59.28
11648;BME280;5880;52.342;9.662;2023-08-01T03:50:25;99011.25;;;21.73;59.51
11648;BME280;5880;52.342;9.662;2023-08-01T03:52:51;99014.69;;;21.70;59.68
11648;BME280;5880;52.342;9.662;2023-08-01T03:55:17;99003.94;;;21.68;59.71
11648;BME280;5880;52.342;9.662;2023-08-01T03:57:43;99004.28;;;21.67;59.46
11648;BME280;5880;52.342;9.662;2023-08-01T04:00:09;98994.31;;;21.66;59.66
11648;BME280;5880;52.342;9.662;2023-08-01T04:02:44;98988.63;;;21.62;59.73
11648;BME280;5880;52.342;9.662;2023-08-01T04:05:10;98993.06;;;21.63;59.69
11648;BME280;5880;52.342;9.662;2023-08-01T04:07:38;99004.28;;;21.67;59.81
11648;BME280;5880;52.342;9.662;2023-08-01T04:10:05;99016.19;;;21.67;59.93
11648;BME280;5880;52.342;9.662;2023-08-01T04:12:34;99015.06;;;21.68;59.62
11648;BME280;5880;52.342;9.662;2023-08-01T04:15:00;99026.50;;;21.67;59.98
11648;BME280;5880;52.342;9.662;2023-08-01T04:17:26;99033.81;;;21.71;59.83
11648;BME280;5880;52.342;9.662;2023-08-01T04:19:52;99031.84;;;21.72;59.74
11648;BME280;5880;52.342;9.662;2023-08-01T04:22:18;99027.56;;;21.75;59.76
11648;BME280;5880;52.342;9.662;2023-08-01T04:24:44;99015.97;;;21.73;59.90
11648;BME280;5880;52.342;9.662;2023-08-01T04:27:10;99017.03;;;21.80;59.60
11648;BME280;5880;52.342;9.662;2023-08-01T04:29:35;99013.09;;;21.81;59.63
11648;BME280;5880;52.342;9.662;2023-08-01T04:32:01;99017.13;;;21.84;59.68
11648;BME280;5880;52.342;9.662;2023-08-01T04:34:27;99015.06;;;21.81;59.39
11648;BME280;5880;52.342;9.662;2023-08-01T04:36:52;99024.81;;;21.87;59.55
11648;BME280;5880;52.342;9.662;2023-08-01T04:39:18;99020.84;;;21.88;59.62
11648;BME280;5880;52.342;9.662;2023-08-01T04:41:44;99015.16;;;21.84;59.48
11648;BME280;5880;52.342;9.662;2023-08-01T04:44:09;99007.19;;;21.83;59.51
11648;BME280;5880;52.342;9.662;2023-08-01T04:46:35;99017.59;;;21.86;59.44
11648;BME280;5880;52.342;9.662;2023-08-01T04:49:01;99008.31;;;21.82;59.50
11648;BME280;5880;52.342;9.662;2023-08-01T04:51:26;99016.66;;;21.82;59.29
11648;BME280;5880;52.342;9.662;2023-08-01T04:53:52;99013.88;;;21.82;59.32
11648;BME280;5880;52.342;9.662;2023-08-01T04:56:18;99009.16;;;21.82;59.37
11648;BME280;5880;52.342;9.662;2023-08-01T04:58:43;99020.72;;;21.84;59.46
11648;BME280;5880;52.342;9.662;2023-08-01T05:01:09;99012.06;;;21.86;59.43
11648;BME280;5880;52.342;9.662;2023-08-01T05:03:35;99015.16;;;21.84;59.40
11648;BME280;5880;52.342;9.662;2023-08-01T05:06:00;99009.28;;;21.86;59.64
11648;BME280;5880;52.342;9.662;2023-08-01T05:08:26;99004.03;;;21.84;59.47
11648;BME280;5880;52.342;9.662;2023-08-01T05:10:52;99014.03;;;21.85;59.55
11648;BME280;5880;52.342;9.662;2023-08-01T05:13:18;99021.19;;;21.86;59.46
11648;BME280;5880;52.342;9.662;2023-08-01T05:15:45;99021.91;;;21.83;59.38
11648;BME280;5880;52.342;9.662;2023-08-01T05:18:13;99027.13;;;21.85;59.19
11648;BME280;5880;52.342;9.662;2023-08-01T05:20:39;99028.25;;;21.84;59.55
11648;BME280;5880;52.342;9.662;2023-08-01T05:23:05;99029.53;;;21.86;59.27
11648;BME280;5880;52.342;9.662;2023-08-01T05:25:31;99019.59;;;21.85;59.41
11648;BME280;5880;52.342;9.662;2023-08-01T05:27:56;99020.38;;;21.86;59.44
11648;BME280;5880;52.342;9.662;2023-08-01T05:30:23;99025.84;;;21.82;59.44
11648;BME280;5880;52.342;9.662;2023-08-01T05:32:49;99021.19;;;21.86;59.61
11648;BME280;5880;52.342;9.662;2023-08-01T05:35:15;99026.09;;;21.89;59.60
11648;BME280;5880;52.342;9.662;2023-08-01T05:37:40;99021.66;;;21.88;59.62
11648;BME280;5880;52.342;9.662;2023-08-01T05:40:07;99029.34;;;21.91;59.58
11648;BME280;5880;52.342;9.662;2023-08-01T05:42:33;99016.91;;;21.89;59.72
11648;BME280;5880;52.342;9.662;2023-08-01T05:44:58;99027.47;;;21.96;59.43
11648;BME280;5880;52.342;9.662;2023-08-01T05:47:24;99026.66;;;21.95;59.65
11648;BME280;5880;52.342;9.662;2023-08-01T05:49:50;99029.19;;;22.00;59.44
11648;BME280;5880;52.342;9.662;2023-08-01T05:52:15;99039.19;;;22.01;59.37
11648;BME280;5880;52.342;9.662;2023-08-01T05:54:41;99041.97;;;22.01;59.47
11648;BME280;5880;52.342;9.662;2023-08-01T05:57:07;99047.16;;;22.03;59.62
11648;BME280;5880;52.342;9.662;2023-08-01T05:59:33;99043.69;;;22.06;59.62
11648;BME280;5880;52.342;9.662;2023-08-01T06:01:59;99046.13;;;22.07;59.66
11648;BME280;5880;52.342;9.662;2023-08-01T06:04:25;99050.53;;;22.08;59.64
11648;BME280;5880;52.342;9.662;2023-08-01T06:06:51;99055.31;;;22.08;59.50
11648;BME280;5880;52.342;9.662;2023-08-01T06:09:16;99050.19;;;22.10;59.58
11648;BME280;5880;52.342;9.662;2023-08-01T06:11:42;99047.63;;;22.05;59.41
11648;BME280;5880;52.342;9.662;2023-08-01T06:14:09;99050.19;;;22.10;59.48
11648;BME280;5880;52.342;9.662;2023-08-01T06:16:35;99068.03;;;22.09;59.70
11648;BME280;5880;52.342;9.662;2023-08-01T06:19:01;99060.03;;;22.07;59.31
11648;BME280;5880;52.342;9.662;2023-08-01T06:21:27;99060.03;;;22.07;59.35
11648;BME280;5880;52.342;9.662;2023-08-01T06:23:52;99056.22;;;22.00;59.44
11648;BME280;5880;52.342;9.662;2023-08-01T06:26:18;99063.38;;;22.01;59.25
11648;BME280;5880;52.342;9.662;2023-08-01T06:28:44;99052.63;;;21.99;59.35
11648;BME280;5880;52.342;9.662;2023-08-01T06:31:09;99050.97;;;21.98;59.20
11648;BME280;5880;52.342;9.662;2023-08-01T06:33:35;99058.53;;;21.98;59.51
11648;BME280;5880;52.342;9.662;2023-08-01T06:36:01;99048.91;;;21.95;59.47
11648;BME280;5880;52.342;9.662;2023-08-01T06:38:26;99052.16;;;21.97;59.63
11648;BME280;5880;52.342;9.662;2023-08-01T06:40:52;99057.59;;;21.93;59.38
11648;BME280;5880;52.342;9.662;2023-08-01T06:43:18;99053.75;;;21.98;59.55
11648;BME280;5880;52.342;9.662;2023-08-01T06:45:43;99050.53;;;21.96;59.41
11648;BME280;5880;52.342;9.662;2023-08-01T06:48:09;99060.97;;;21.99;59.55
11648;BME280;5880;52.342;9.662;2023-08-01T06:50:35;99075.69;;;22.00;59.73
11648;BME280;5880;52.342;9.662;2023-08-01T06:53:01;99069.41;;;22.03;59.71
11648;BME280;5880;52.342;9.662;2023-08-01T06:55:27;99051.13;;;22.02;59.94
11648;BME280;5880;52.342;9.662;2023-08-01T06:57:53;99066.44;;;22.08;59.80
11648;BME280;5880;52.342;9.662;2023-08-01T07:00:18;99068.84;;;22.09;59.84
11648;BME280;5880;52.342;9.662;2023-08-01T07:02:44;99070.47;;;22.10;59.72
11648;BME280;5880;52.342;9.662;2023-08-01T07:05:10;99080.56;;;22.15;59.64
11648;BME280;5880;52.342;9.662;2023-08-01T07:07:35;99069.06;;;22.17;59.88
11648;BME280;5880;52.342;9.662;2023-08-01T07:10:01;99080.34;;;22.20;59.87
11648;BME280;5880;52.342;9.662;2023-08-01T07:12:27;99081.97;;;22.21;59.89
11648;BME280;5880;52.342;9.662;2023-08-01T07:14:53;99071.19;;;22.20;59.80
11648;BME280;5880;52.342;9.662;2023-08-01T07:17:18;99076.19;;;22.26;59.83
11648;BME280;5880;52.342;9.662;2023-08-01T07:19:44;99084.19;;;22.28;59.99
11648;BME280;5880;52.342;9.662;2023-08-01T07:22:10;99081.88;;;22.30;60.02
11648;BME280;5880;52.342;9.662;2023-08-01T07:24:35;99091.81;;;22.31;60.07
11648;BME280;5880;52.342;9.662;2023-08-01T07:27:01;99101.81;;;22.32;60.00
11648;BME280;5880;52.342;9.662;2023-08-01T07:29:27;99098.31;;;22.35;60.14
11648;BME280;5880;52.342;9.662;2023-08-01T07:31:52;99087.66;;;22.37;60.04
11648;BME280;5880;52.342;9.662;2023-08-01T07:34:18;99090.09;;;22.39;60.16
11648;BME280;5880;52.342;9.662;2023-08-01T07:36:47;99102.28;;;22.46;60.15
11648;BME280;5880;52.342;9.662;2023-08-01T07:39:14;99101.56;;;22.49;60.14
11648;BME280;5880;52.342;9.662;2023-08-01T07:41:40;99109.25;;;22.52;60.15
11648;BME280;5880;52.342;9.662;2023-08-01T07:44:06;99098.53;;;22.54;60.22
11648;BME280;5880;52.342;9.662;2023-08-01T07:46:32;99107.16;;;22.62;60.23
11648;BME280;5880;52.342;9.662;2023-08-01T07:48:58;99099.22;;;22.64;59.93
11648;BME280;5880;52.342;9.662;2023-08-01T07:51:27;99107.38;;;22.69;59.87
11648;BME280;5880;52.342;9.662;2023-08-01T07:53:54;99100.28;;;22.71;59.98
11648;BME280;5880;52.342;9.662;2023-08-01T07:56:20;99101.19;;;22.75;60.07
11648;BME280;5880;52.342;9.662;2023-08-01T07:58:46;99106.06;;;22.79;60.09
11648;BME280;5880;52.342;9.662;2023-08-01T08:01:12;99107.44;;;22.85;60.39
11648;BME280;5880;52.342;9.662;2023-08-01T08:03:37;99107.66;;;22.92;60.37
11648;BME280;5880;52.342;9.662;2023-08-01T08:06:03;99115.09;;;23.00;60.46
11648;BME280;5880;52.342;9.662;2023-08-01T08:08:30;99123.78;;;23.11;60.40
11648;BME280;5880;52.342;9.662;2023-08-01T08:10:55;99114.72;;;23.14;60.56
11648;BME280;5880;52.342;9.662;2023-08-01T08:13:21;99117.56;;;23.30;60.73
11648;BME280;5880;52.342;9.662;2023-08-01T08:15:47;99124.25;;;23.41;60.60
11648;BME280;5880;52.342;9.662;2023-08-01T08:18:13;99111.34;;;23.49;60.25
11648;BME280;5880;52.342;9.662;2023-08-01T08:20:44;99119.91;;;23.56;59.79
11648;BME280;5880;52.342;9.662;2023-08-01T08:23:11;99116.75;;;23.57;59.42
11648;BME280;5880;52.342;9.662;2023-08-01T08:25:40;99121.16;;;23.58;58.92
11648;BME280;5880;52.342;9.662;2023-08-01T08:28:06;99117.13;;;23.56;58.94
11648;BME280;5880;52.342;9.662;2023-08-01T08:30:31;99115.03;;;23.53;58.93
11648;BME280;5880;52.342;9.662;2023-08-01T08:32:58;99105.84;;;23.52;58.85
11648;BME280;5880;52.342;9.662;2023-08-01T08:35:26;99110.97;;;23.50;58.99
11648;BME280;5880;52.342;9.662;2023-08-01T08:37:51;99110.63;;;23.52;59.24
11648;BME280;5880;52.342;9.662;2023-08-01T08:40:17;99099.94;;;23.54;59.64
11648;BME280;5880;52.342;9.662;2023-08-01T08:42:44;99109.66;;;23.60;59.75
11648;BME280;5880;52.342;9.662;2023-08-01T08:45:14;99110.09;;;23.62;59.35
11648;BME280;5880;52.342;9.662;2023-08-01T08:47:49;99101.38;;;23.64;59.13
11648;BME280;5880;52.342;9.662;2023-08-01T08:50:19;99106.63;;;23.65;59.45
11648;BME280;5880;52.342;9.662;2023-08-01T08:52:46;99103.91;;;23.69;59.22
11648;BME280;5880;52.342;9.662;2023-08-01T08:55:12;99101.22;;;23.72;59.03
11648;BME280;5880;52.342;9.662;2023-08-01T08:57:38;99108.09;;;23.75;59.23
11648;BME280;5880;52.342;9.662;2023-08-01T09:00:06;99084.84;;;23.71;59.12
11648;BME280;5880;52.342;9.662;2023-08-01T09:02:35;99100.19;;;23.77;59.26
11648;BME280;5880;52.342;9.662;2023-08-01T09:05:00;99100.19;;;23.77;59.27
11648;BME280;5880;52.342;9.662;2023-08-01T09:07:33;99100.28;;;23.80;58.95
11648;BME280;5880;52.342;9.662;2023-08-01T09:10:01;99102.59;;;23.78;58.62
11648;BME280;5880;52.342;9.662;2023-08-01T09:12:27;99103.88;;;23.81;58.77
11648;BME280;5880;52.342;9.662;2023-08-01T09:14:56;99096.69;;;23.80;58.80
11648;BME280;5880;52.342;9.662;2023-08-01T09:17:22;99096.69;;;23.80;58.72
11648;BME280;5880;52.342;9.662;2023-08-01T09:19:48;99102.59;;;23.78;58.88
11648;BME280;5880;52.342;9.662;2023-08-01T09:22:14;99111.06;;;23.82;58.72
11648;BME280;5880;52.342;9.662;2023-08-01T09:24:52;99116.84;;;23.89;58.50
11648;BME280;5880;52.342;9.662;2023-08-01T09:27:20;99118.09;;;23.92;58.89
11648;BME280;5880;52.342;9.662;2023-08-01T09:29:46;99114.06;;;23.89;58.83
11648;BME280;5880;52.342;9.662;2023-08-01T09:32:13;99112.97;;;23.94;58.55
11648;BME280;5880;52.342;9.662;2023-08-01T09:34:40;99116.22;;;23.96;58.65
11648;BME280;5880;52.342;9.662;2023-08-01T09:37:06;99117.03;;;23.96;58.46
11648;BME280;5880;52.342;9.662;2023-08-01T09:39:33;99114.34;;;24.00;58.56
11648;BME280;5880;52.342;9.662;2023-08-01T09:42:01;99120.13;;;24.07;58.41
11648;BME280;5880;52.342;9.662;2023-08-01T09:44:29;99122.19;;;24.10;58.00
11648;BME280;5880;52.342;9.662;2023-08-01T09:47:00;99126.56;;;24.11;57.98
11648;BME280;5880;52.342;9.662;2023-08-01T09:49:31;99125.78;;;24.11;58.13
11648;BME280;5880;52.342;9.662;2023-08-01T09:51:57;99124.97;;;24.10;58.05
11648;BME280;5880;52.342;9.662;2023-08-01T09:54:23;99115.78;;;24.10;57.95
11648;BME280;5880;52.342;9.662;2023-08-01T09:56:52;99125.41;;;24.12;57.45
11648;BME280;5880;52.342;9.662;2023-08-01T09:59:21;99122.53;;;24.09;57.43
11648;BME280;5880;52.342;9.662;2023-08-01T10:01:49;99120.00;;;24.04;57.30
11648;BME280;5880;52.342;9.662;2023-08-01T10:04:23;99127.66;;;24.07;57.71
11648;BME280;5880;52.342;9.662;2023-08-01T10:06:57;99118.59;;;24.10;57.75
11648;BME280;5880;52.342;9.662;2023-08-01T10:09:25;99124.63;;;24.12;57.69
11648;BME280;5880;52.342;9.662;2023-08-01T10:11:52;99125.50;;;24.16;57.17
11648;BME280;5880;52.342;9.662;2023-08-01T10:14:20;99127.22;;;24.20;57.51
11648;BME280;5880;52.342;9.662;2023-08-01T10:16:47;99121.28;;;24.22;57.08
11648;BME280;5880;52.342;9.662;2023-08-01T10:19:13;99126.13;;;24.25;57.22
11648;BME280;5880;52.342;9.662;2023-08-01T10:21:41;99126.13;;;24.25;57.05
11648;BME280;5880;52.342;9.662;2023-08-01T10:24:10;99127.78;;;24.26;57.07
11648;BME280;5880;52.342;9.662;2023-08-01T10:26:37;99128.13;;;24.25;56.79
11648;BME280;5880;52.342;9.662;2023-08-01T10:29:03;99133.25;;;24.22;56.77
11648;BME280;5880;52.342;9.662;2023-08-01T10:31:29;99130.00;;;24.20;56.50
11648;BME280;5880;52.342;9.662;2023-08-01T10:34:05;99131.53;;;24.18;56.54
11648;BME280;5880;52.342;9.662;2023-08-01T10:36:32;99128.66;;;24.14;56.95
11648;BME280;5880;52.342;9.662;2023-08-01T10:39:00;99126.75;;;24.18;56.93
11648;BME280;5880;52.342;9.662;2023-08-01T10:41:37;99127.66;;;24.22;56.83
11648;BME280;5880;52.342;9.662;2023-08-01T10:44:14;99118.84;;;24.20;56.83
11648;BME280;5880;52.342;9.662;2023-08-01T10:46:53;99129.38;;;24.27;56.73
11648;BME280;5880;52.342;9.662;2023-08-01T10:49:33;99119.41;;;24.26;56.38
11648;BME280;5880;52.342;9.662;2023-08-01T10:52:00;99125.31;;;24.25;56.29
11648;BME280;5880;52.342;9.662;2023-08-01T10:54:26;99131.25;;;24.23;56.31
11648;BME280;5880;52.342;9.662;2023-08-01T10:56:55;99131.38;;;24.27;56.52
11648;BME280;5880;52.342;9.662;2023-08-01T10:59:24;99120.56;;;24.25;56.78
11648;BME280;5880;52.342;9.662;2023-08-01T11:01:58;99125.50;;;24.32;57.21
11648;BME280;5880;52.342;9.662;2023-08-01T11:04:24;99114.91;;;24.37;57.03
11648;BME280;5880;52.342;9.662;2023-08-01T11:06:53;99117.16;;;24.48;57.19
11648;BME280;5880;52.342;9.662;2023-08-01T11:09:27;99115.34;;;24.55;57.43
11648;BME280;5880;52.342;9.662;2023-08-01T11:11:58;99119.66;;;24.69;57.12
11648;BME280;5880;52.342;9.662;2023-08-01T11:14:28;99130.97;;;24.76;57.33
11648;BME280;5880;52.342;9.662;2023-08-01T11:16:58;99131.03;;;24.79;57.07
11648;BME280;5880;52.342;9.662;2023-08-01T11:19:28;99137.53;;;24.83;56.31
11648;BME280;5880;52.342;9.662;2023-08-01T11:21:56;99139.97;;;24.85;56.35
11648;BME280;5880;52.342;9.662;2023-08-01T11:24:24;99139.97;;;24.85;55.94
11648;BME280;5880;52.342;9.662;2023-08-01T11:26:53;99146.28;;;24.82;55.22
11648;BME280;5880;52.342;9.662;2023-08-01T11:29:20;99154.13;;;24.76;55.21
11648;BME280;5880;52.342;9.662;2023-08-01T11:31:59;99158.91;;;24.76;55.22
11648;BME280;5880;52.342;9.662;2023-08-01T11:34:26;99172.72;;;24.69;55.15
11648;BME280;5880;52.342;9.662;2023-08-01T11:36:52;99166.97;;;24.61;54.79
11648;BME280;5880;52.342;9.662;2023-08-01T11:39:19;99173.91;;;24.52;54.78
11648;BME280;5880;52.342;9.662;2023-08-01T11:41:47;99182.88;;;24.45;54.81
11648;BME280;5880;52.342;9.662;2023-08-01T11:44:13;99188.28;;;24.38;54.67
11648;BME280;5880;52.342;9.662;2023-08-01T11:46:39;99180.81;;;24.26;54.95
11648;BME280;5880;52.342;9.662;2023-08-01T11:49:07;99185.47;;;24.22;55.03
11648;BME280;5880;52.342;9.662;2023-08-01T11:51:42;99190.88;;;24.15;55.03
11648;BME280;5880;52.342;9.662;2023-08-01T11:54:09;99181.75;;;24.02;55.43
11648;BME280;5880;52.342;9.662;2023-08-01T11:56:38;99197.31;;;24.03;55.68
11648;BME280;5880;52.342;9.662;2023-08-01T11:59:15;99196.88;;;24.01;55.94
11648;BME280;5880;52.342;9.662;2023-08-01T12:01:44;99197.69;;;24.01;56.66
11648;BME280;5880;52.342;9.662;2023-08-01T12:04:11;99206.63;;;24.07;57.12
11648;BME280;5880;52.342;9.662;2023-08-01T12:06:37;99194.38;;;24.12;56.64
11648;BME280;5880;52.342;9.662;2023-08-01T12:09:12;99190.53;;;24.16;56.43
11648;BME280;5880;52.342;9.662;2023-08-01T12:11:40;99184.56;;;24.18;56.72
11648;BME280;5880;52.342;9.662;2023-08-01T12:14:10;99188.25;;;24.22;56.72
11648;BME280;5880;52.342;9.662;2023-08-01T12:16:42;99185.94;;;24.24;56.89
11648;BME280;5880;52.342;9.662;2023-08-01T12:19:10;99200.06;;;24.31;57.06
11648;BME280;5880;52.342;9.662;2023-08-01T12:21:36;99181.69;;;24.30;56.86
11648;BME280;5880;52.342;9.662;2023-08-01T12:24:03;99198.72;;;24.41;56.80
11648;BME280;5880;52.342;9.662;2023-08-01T12:26:29;99209.16;;;24.44;56.47
11648;BME280;5880;52.342;9.662;2023-08-01T12:28:55;99217.19;;;24.46;56.18
11648;BME280;5880;52.342;9.662;2023-08-01T12:31:22;99208.72;;;24.42;55.91
11648;BME280;5880;52.342;9.662;2023-08-01T12:33:48;99215.56;;;24.44;55.59
11648;BME280;5880;52.342;9.662;2023-08-01T12:36:15;99211.06;;;24.40;55.56
11648;BME280;5880;52.342;9.662;2023-08-01T12:38:41;99218.25;;;24.41;55.68
11648;BME280;5880;52.342;9.662;2023-08-01T12:41:07;99202.31;;;24.41;55.84
11648;BME280;5880;52.342;9.662;2023-08-01T12:43:33;99218.72;;;24.43;56.26
11648;BME280;5880;52.342;9.662;2023-08-01T12:45:59;99222.75;;;24.46;56.50
11648;BME280;5880;52.342;9.662;2023-08-01T12:48:26;99228.13;;;24.51;56.18
11648;BME280;5880;52.342;9.662;2023-08-01T12:50:52;99227.41;;;24.54;56.60
11648;BME280;5880;52.342;9.662;2023-08-01T12:53:19;99237.50;;;24.58;56.36
11648;BME280;5880;52.342;9.662;2023-08-01T12:55:47;99222.00;;;24.61;56.42
11648;BME280;5880;52.342;9.662;2023-08-01T12:58:14;99221.28;;;24.64;56.38
11648;BME280;5880;52.342;9.662;2023-08-01T13:00:41;99217.84;;;24.71;56.62
11648;BME280;5880;52.342;9.662;2023-08-01T13:03:07;99205.50;;;24.72;56.77
11648;BME280;5880;52.342;9.662;2023-08-01T13:05:39;99210.16;;;24.83;56.96
11648;BME280;5880;52.342;9.662;2023-08-01T13:08:05;99210.28;;;24.87;56.54